Time;durP1;ratioP1;P1;durP2;ratioP2;P2;SDS_P1;SDS_P2;PMS_P1;PMS_P2;Temp;Humidity;BMP_temperature;BMP_pressure;BME280_temperature;BME280_humidity;BME280_pressure;Samples;Min_cycle;Max_cycle;Signal;HPM_P1;HPM_P2
2023/04/28 00:01:20;;;;;;;21.67;13.50;;;11.00;78.30;;;;;;6190309;22;87375;-78
2023/04/28 00:03:45;;;;;;;23.58;13.82;;;11.00;77.30;;;;;;6217084;22;87519;-78
2023/04/28 00:06:11;;;;;;;23.45;13.85;;;11.00;77.40;;;;;;6218036;22;87552;-78
2023/04/28 00:08:37;;;;;;;28.50;14.25;;;11.00;78.80;;;;;;6217777;22;87290;-78
2023/04/28 00:11:02;;;;;;;21.52;13.23;;;11.00;77.60;;;;;;6217663;22;87287;-78
2023/04/28 00:13:28;;;;;;;23.92;14.55;;;11.00;79.00;;;;;;6217693;22;87583;-78
2023/04/28 00:15:54;;;;;;;21.27;14.07;;;11.00;79.60;;;;;;6216982;22;89066;-79
2023/04/28 00:18:20;;;;;;;23.10;13.93;;;11.00;79.40;;;;;;6217721;22;88642;-78
2023/04/28 00:20:55;;;;;;;26.13;12.50;;;11.00;79.70;;;;;;6217092;22;87466;-78
2023/04/28 00:23:21;;;;;;;27.23;15.25;;;11.00;80.40;;;;;;6191012;22;89340;-77
2023/04/28 00:25:51;;;;;;;23.67;14.32;;;11.00;83.80;;;;;;6217883;22;88630;-78
2023/04/28 00:28:17;;;;;;;28.65;13.38;;;11.00;83.10;;;;;;6191021;22;91563;-78
2023/04/28 00:30:42;;;;;;;21.92;15.25;;;11.00;80.50;;;;;;6213880;22;87433;-78
2023/04/28 00:33:08;;;;;;;27.92;15.68;;;10.90;85.80;;;;;;6187482;22;88712;-78
2023/04/28 00:35:34;;;;;;;27.15;15.73;;;10.90;88.00;;;;;;6213083;22;88268;-78
2023/04/28 00:37:59;;;;;;;23.95;14.40;;;10.90;85.10;;;;;;6213849;22;88691;-79
2023/04/28 00:40:36;;;;;;;27.90;16.23;;;10.80;84.10;;;;;;6189036;22;88554;-79
2023/04/28 00:43:02;;;;;;;28.30;16.02;;;10.80;87.50;;;;;;6216826;22;87489;-79
2023/04/28 00:45:28;;;;;;;30.45;16.60;;;10.80;88.70;;;;;;6217033;22;88395;-79
2023/04/28 00:47:54;;;;;;;29.35;15.80;;;10.80;90.40;;;;;;6216407;22;87776;-79
2023/04/28 00:50:24;;;;;;;24.75;15.30;;;10.70;89.50;;;;;;6217098;22;87333;-79
2023/04/28 00:52:51;;;;;;;28.85;16.50;;;10.70;90.40;;;;;;6216697;22;87470;-79
2023/04/28 00:55:18;;;;;;;31.38;17.08;;;10.70;90.80;;;;;;6217025;22;89100;-79
2023/04/28 00:57:44;;;;;;;30.60;17.75;;;10.70;91.20;;;;;;6217137;22;88821;-79
2023/04/28 01:00:11;;;;;;;33.92;18.35;;;10.60;91.50;;;;;;6217051;22;87395;-79
2023/04/28 01:02:36;;;;;;;34.17;17.27;;;10.60;91.40;;;;;;6216213;22;87266;-79
2023/04/28 01:05:02;;;;;;;30.67;17.25;;;10.60;91.40;;;;;;6188361;22;90969;-79
2023/04/28 01:07:28;;;;;;;31.38;18.25;;;10.60;91.40;;;;;;6215177;22;88758;-79
2023/04/28 01:09:55;;;;;;;26.63;17.10;;;10.50;91.70;;;;;;6189262;22;87320;-79
2023/04/28 01:12:20;;;;;;;31.50;16.58;;;10.50;91.50;;;;;;6188944;22;89290;-79
2023/04/28 01:14:47;;;;;;;26.35;16.20;;;10.50;91.50;;;;;;6216257;22;88759;-79
2023/04/28 01:17:13;;;;;;;27.77;16.52;;;10.40;91.40;;;;;;6216524;22;87919;-78
2023/04/28 01:19:39;;;;;;;29.95;16.65;;;10.40;91.30;;;;;;6217075;22;87396;-79
2023/04/28 01:22:05;;;;;;;34.38;17.98;;;10.30;91.40;;;;;;6217253;22;87375;-79
2023/04/28 01:24:31;;;;;;;30.15;17.52;;;10.30;91.60;;;;;;6191235;22;91413;-80
2023/04/28 01:26:56;;;;;;;28.52;16.38;;;10.30;91.90;;;;;;6217084;22;88468;-80
2023/04/28 01:29:22;;;;;;;29.55;17.73;;;10.30;91.70;;;;;;6189220;22;88590;-80
2023/04/28 01:31:48;;;;;;;29.70;16.92;;;10.30;91.80;;;;;;6216830;22;87538;-80
2023/04/28 01:34:13;;;;;;;25.73;16.70;;;10.30;91.90;;;;;;6216397;22;88507;-79
2023/04/28 01:36:39;;;;;;;29.40;16.58;;;10.30;90.90;;;;;;6217015;22;88389;-79
2023/04/28 01:39:05;;;;;;;28.05;16.42;;;10.30;91.30;;;;;;6189626;22;87367;-79
2023/04/28 01:41:33;;;;;;;26.40;16.73;;;10.30;91.50;;;;;;6216713;22;87693;-79
2023/04/28 01:43:59;;;;;;;28.15;16.63;;;10.40;92.00;;;;;;6217661;22;88370;-79
2023/04/28 01:46:25;;;;;;;28.92;17.95;;;10.40;91.30;;;;;;6218459;22;88176;-79
2023/04/28 01:48:51;;;;;;;24.48;16.48;;;10.40;92.10;;;;;;6218053;22;87387;-79
2023/04/28 01:51:16;;;;;;;31.50;17.52;;;10.40;92.30;;;;;;6218171;22;87485;-79
2023/04/28 01:53:42;;;;;;;28.70;17.83;;;10.40;92.10;;;;;;6217382;22;89553;-79
2023/04/28 01:56:08;;;;;;;29.67;18.77;;;10.40;92.40;;;;;;6217753;22;88096;-79
2023/04/28 01:58:33;;;;;;;31.38;18.25;;;10.30;92.70;;;;;;6218105;22;87440;-79
2023/04/28 02:00:59;;;;;;;32.30;17.63;;;10.30;92.50;;;;;;6217488;22;87335;-79
2023/04/28 02:03:26;;;;;;;29.35;17.75;;;10.30;92.60;;;;;;6218376;22;88070;-79
2023/04/28 02:05:52;;;;;;;31.10;18.20;;;10.30;92.50;;;;;;6218327;22;87946;-80
2023/04/28 02:08:18;;;;;;;28.23;16.88;;;10.30;92.60;;;;;;6190131;22;86977;-79
2023/04/28 02:10:44;;;;;;;32.53;17.52;;;10.30;92.60;;;;;;6217638;22;87084;-80
2023/04/28 02:13:09;;;;;;;36.90;18.58;;;10.30;92.70;;;;;;6216595;22;88467;-80
2023/04/28 02:15:42;;;;;;;31.90;17.80;;;10.30;92.40;;;;;;6216806;22;88376;-79
2023/04/28 02:18:09;;;;;;;33.97;18.30;;;10.30;92.60;;;;;;6216637;22;88537;-80
2023/04/28 02:20:35;;;;;;;28.33;18.15;;;10.30;92.80;;;;;;6217726;22;87774;-80
2023/04/28 02:23:00;;;;;;;31.13;17.48;;;10.30;92.90;;;;;;6190152;22;91383;-79
2023/04/28 02:25:26;;;;;;;31.52;19.30;;;10.30;92.80;;;;;;6190733;22;89407;-79
2023/04/28 02:27:51;;;;;;;33.30;19.13;;;10.30;93.10;;;;;;6218166;22;87405;-80
2023/04/28 02:30:17;;;;;;;32.53;19.35;;;10.30;93.10;;;;;;6217687;22;87583;-80
2023/04/28 02:32:43;;;;;;;33.65;19.95;;;10.30;93.00;;;;;;6190351;22;89490;-79
2023/04/28 02:35:08;;;;;;;34.35;19.45;;;10.30;93.10;;;;;;6190944;22;91274;-79
2023/04/28 02:37:34;;;;;;;34.33;20.58;;;10.30;93.40;;;;;;6217673;22;87435;-80
2023/04/28 02:40:00;;;;;;;32.88;20.42;;;10.30;93.50;;;;;;6218224;22;87349;-80
2023/04/28 02:42:25;;;;;;;45.17;22.15;;;10.30;93.50;;;;;;6217742;22;89911;-80
2023/04/28 02:44:51;;;;;;;34.42;20.52;;;10.30;93.70;;;;;;6218045;22;88087;-80
2023/04/28 02:47:17;;;;;;;33.60;20.35;;;10.30;93.70;;;;;;6190978;22;87359;-80
2023/04/28 02:49:42;;;;;;;35.33;20.45;;;10.30;93.80;;;;;;6217220;22;88142;-80
2023/04/28 02:52:08;;;;;;;33.08;20.58;;;10.20;93.80;;;;;;6217941;22;88257;-80
2023/04/28 02:54:35;;;;;;;30.45;19.40;;;10.20;94.20;;;;;;6217567;22;88448;-79
2023/04/28 02:57:02;;;;;;;34.38;20.85;;;10.20;94.10;;;;;;6190614;22;87650;-80
2023/04/28 02:59:28;;;;;;;37.45;20.90;;;10.20;94.00;;;;;;6218005;22;86748;-79
2023/04/28 03:01:53;;;;;;;34.20;20.23;;;10.20;94.10;;;;;;6189653;22;91309;-80
2023/04/28 03:04:19;;;;;;;39.28;21.90;;;10.10;94.20;;;;;;6189753;22;91092;-80
2023/04/28 03:06:45;;;;;;;39.85;21.50;;;10.10;94.40;;;;;;6189594;22;88408;-79
2023/04/28 03:09:11;;;;;;;40.03;21.00;;;10.00;94.50;;;;;;6190207;22;88995;-79
2023/04/28 03:11:37;;;;;;;33.42;20.75;;;10.00;94.60;;;;;;6190049;22;91641;-79
2023/04/28 03:14:03;;;;;;;35.22;20.17;;;10.00;94.60;;;;;;6217601;22;88284;-80
2023/04/28 03:16:28;;;;;;;37.40;21.77;;;10.00;94.40;;;;;;6217873;22;87682;-79
2023/04/28 03:18:54;;;;;;;34.05;21.05;;;10.10;94.70;;;;;;6190026;22;89543;-79
2023/04/28 03:21:19;;;;;;;34.88;20.08;;;10.10;94.60;;;;;;6215984;22;88521;-80
2023/04/28 03:23:45;;;;;;;31.90;19.60;;;10.10;94.50;;;;;;6217512;22;88416;-80
2023/04/28 03:26:11;;;;;;;33.65;20.75;;;10.20;94.50;;;;;;6217711;22;87503;-79
2023/04/28 03:28:36;;;;;;;33.42;20.17;;;10.20;94.60;;;;;;6190146;22;89738;-80
2023/04/28 03:31:02;;;;;;;36.25;20.58;;;10.20;94.50;;;;;;6190104;22;91420;-80
2023/04/28 03:33:28;;;;;;;33.25;20.75;;;10.20;94.50;;;;;;6190594;22;92225;-80
2023/04/28 03:35:54;;;;;;;34.50;19.58;;;10.20;94.50;;;;;;6217755;22;87270;-80
2023/04/28 03:38:21;;;;;;;39.70;19.80;;;10.20;94.50;;;;;;6189949;22;88957;-80
2023/04/28 03:40:47;;;;;;;37.33;20.50;;;10.20;94.60;;;;;;6216897;22;88283;-80
2023/04/28 03:43:12;;;;;;;33.33;19.80;;;10.30;94.70;;;;;;6217981;22;88194;-79
2023/04/28 03:45:39;;;;;;;29.30;19.35;;;10.20;94.70;;;;;;6217809;22;87601;-80
2023/04/28 03:48:05;;;;;;;29.30;18.80;;;10.30;94.70;;;;;;6218620;22;87291;-80
2023/04/28 03:50:31;;;;;;;29.40;18.77;;;10.30;94.70;;;;;;6218783;22;88352;-80
2023/04/28 03:52:57;;;;;;;38.30;21.58;;;10.30;94.50;;;;;;6218990;22;88932;-80
2023/04/28 03:55:23;;;;;;;30.20;18.92;;;10.30;94.70;;;;;;6217590;22;88414;-80
2023/04/28 03:57:48;;;;;;;32.28;19.98;;;10.40;94.60;;;;;;6192708;22;89686;-81
2023/04/28 04:00:14;;;;;;;31.60;20.17;;;10.40;94.50;;;;;;6219953;22;88267;-80
2023/04/28 04:02:40;;;;;;;32.80;20.00;;;10.40;94.60;;;;;;6219504;22;88812;-81
2023/04/28 04:05:06;;;;;;;39.35;21.08;;;10.40;94.70;;;;;;6192636;22;87360;-80
2023/04/28 04:07:31;;;;;;;38.00;19.88;;;10.40;94.60;;;;;;6219779;22;87663;-80
2023/04/28 04:09:57;;;;;;;39.45;20.30;;;10.40;94.70;;;;;;6219326;22;87472;-80
2023/04/28 04:12:23;;;;;;;37.22;21.20;;;10.40;94.60;;;;;;6192334;22;90403;-80
2023/04/28 04:14:48;;;;;;;36.05;19.83;;;10.40;94.80;;;;;;6191481;22;87459;-80
2023/04/28 04:17:14;;;;;;;35.53;20.23;;;10.40;94.70;;;;;;6190324;22;89135;-80
2023/04/28 04:19:40;;;;;;;37.15;20.73;;;10.40;94.60;;;;;;6216924;22;89449;-80
2023/04/28 04:22:06;;;;;;;37.97;21.50;;;10.40;94.70;;;;;;6217467;22;89968;-80
2023/04/28 04:24:31;;;;;;;31.83;19.90;;;10.50;94.90;;;;;;6217708;22;87200;-80
2023/04/28 04:26:57;;;;;;;37.30;22.90;;;10.50;94.90;;;;;;6190356;22;89576;-80
2023/04/28 04:29:22;;;;;;;34.88;21.40;;;10.50;95.00;;;;;;6190558;22;91521;-80
2023/04/28 04:31:48;;;;;;;41.80;22.00;;;10.50;94.80;;;;;;6217237;22;88433;-79
2023/04/28 04:34:14;;;;;;;32.08;19.38;;;10.50;95.20;;;;;;6189712;22;87416;-79
2023/04/28 04:36:39;;;;;;;35.85;20.65;;;10.50;94.80;;;;;;6190335;22;89967;-79
2023/04/28 04:39:05;;;;;;;32.83;20.85;;;10.60;94.90;;;;;;6189926;22;90084;-79
2023/04/28 04:41:31;;;;;;;31.70;19.48;;;10.60;94.70;;;;;;6216839;22;88135;-79
2023/04/28 04:43:56;;;;;;;32.80;19.88;;;10.60;94.90;;;;;;6189376;22;88158;-79
2023/04/28 04:46:26;;;;;;;32.33;19.40;;;10.70;94.90;;;;;;6217391;22;87482;-79
2023/04/28 04:48:52;;;;;;;31.48;19.20;;;10.60;94.80;;;;;;6189596;22;91474;-80
2023/04/28 04:51:18;;;;;;;30.25;19.52;;;10.70;94.80;;;;;;6217035;22;88814;-79
2023/04/28 04:53:44;;;;;;;35.35;21.50;;;10.70;94.90;;;;;;6189089;22;88256;-79
2023/04/28 04:56:09;;;;;;;36.42;19.88;;;10.70;95.00;;;;;;6216892;22;87339;-80
2023/04/28 04:58:35;;;;;;;32.65;20.85;;;10.70;94.70;;;;;;6217465;22;88322;-80
2023/04/28 05:01:02;;;;;;;31.02;18.70;;;10.70;95.00;;;;;;6217183;22;88891;-80
2023/04/28 05:03:27;;;;;;;32.25;19.50;;;10.70;94.80;;;;;;6217416;22;87544;-80
2023/04/28 05:05:53;;;;;;;36.85;20.83;;;10.70;94.80;;;;;;6217326;22;87244;-80
2023/04/28 05:08:19;;;;;;;30.25;18.33;;;10.80;95.20;;;;;;6188961;22;90958;-80
2023/04/28 05:10:44;;;;;;;26.92;17.35;;;10.80;94.80;;;;;;6216837;22;88927;-80
2023/04/28 05:13:10;;;;;;;30.50;17.83;;;10.80;94.80;;;;;;6217712;22;87276;-80
2023/04/28 05:15:36;;;;;;;34.15;19.40;;;10.90;94.80;;;;;;6216990;22;87367;-80
2023/04/28 05:18:07;;;;;;;33.50;18.70;;;10.90;94.90;;;;;;6217882;22;88260;-80
2023/04/28 05:20:33;;;;;;;30.05;18.45;;;10.90;94.90;;;;;;6217341;22;88389;-80
2023/04/28 05:22:58;;;;;;;32.90;18.77;;;11.00;94.90;;;;;;6217231;22;87441;-80
2023/04/28 05:25:25;;;;;;;29.63;18.00;;;11.00;94.90;;;;;;6217777;22;86732;-80
2023/04/28 05:27:50;;;;;;;30.33;18.30;;;11.10;94.90;;;;;;6217055;22;87401;-79
2023/04/28 05:30:16;;;;;;;34.40;19.98;;;11.10;94.80;;;;;;6217572;22;88317;-80
2023/04/28 05:32:42;;;;;;;28.00;17.52;;;11.20;94.90;;;;;;6216310;22;88348;-80
2023/04/28 05:35:07;;;;;;;30.75;18.38;;;11.20;94.60;;;;;;6189540;22;88924;-80
2023/04/28 05:37:33;;;;;;;30.23;17.83;;;11.20;95.20;;;;;;6215530;22;88206;-80
2023/04/28 05:40:00;;;;;;;28.83;18.42;;;11.30;94.70;;;;;;6190591;22;87644;-80
2023/04/28 05:42:26;;;;;;;27.95;17.88;;;11.30;94.80;;;;;;6190305;22;87593;-80
2023/04/28 05:44:51;;;;;;;31.17;17.55;;;11.40;94.70;;;;;;6216671;22;87487;-80
2023/04/28 05:47:17;;;;;;;30.95;19.10;;;11.40;94.70;;;;;;6217116;22;89123;-80
2023/04/28 05:49:43;;;;;;;26.85;17.25;;;11.50;94.70;;;;;;6217058;22;87980;-80
2023/04/28 05:52:08;;;;;;;33.60;18.42;;;11.50;94.50;;;;;;6217517;22;87562;-80
2023/04/28 05:54:34;;;;;;;30.92;18.25;;;11.60;94.70;;;;;;6216232;22;87980;-80
2023/04/28 05:57:00;;;;;;;29.52;18.48;;;11.60;94.80;;;;;;6188812;22;90632;-80
2023/04/28 05:59:27;;;;;;;30.13;18.77;;;11.70;94.80;;;;;;6189194;22;92271;-80
2023/04/28 06:01:53;;;;;;;28.88;17.23;;;11.70;94.70;;;;;;6189570;22;87521;-80
2023/04/28 06:04:18;;;;;;;30.10;17.13;;;11.80;94.60;;;;;;6190201;22;90855;-80
2023/04/28 06:06:44;;;;;;;31.60;19.10;;;11.80;94.70;;;;;;6215645;22;87514;-80
2023/04/28 06:09:10;;;;;;;24.08;16.27;;;11.80;94.70;;;;;;6189181;22;90369;-79
2023/04/28 06:11:35;;;;;;;26.17;17.27;;;11.90;94.20;;;;;;6213855;22;87382;-79
2023/04/28 06:14:01;;;;;;;25.10;16.92;;;11.90;94.40;;;;;;6189374;22;89378;-81
2023/04/28 06:16:28;;;;;;;23.95;16.38;;;11.90;94.50;;;;;;6218713;22;89186;-81
2023/04/28 06:18:53;;;;;;;28.50;18.55;;;12.00;94.50;;;;;;6218616;22;88006;-80
2023/04/28 06:21:20;;;;;;;27.85;16.95;;;12.00;94.40;;;;;;6217282;22;88906;-80
2023/04/28 06:23:46;;;;;;;29.67;18.70;;;12.10;94.60;;;;;;6190960;22;90988;-80
2023/04/28 06:26:12;;;;;;;27.00;17.70;;;12.10;94.50;;;;;;6192554;22;89668;-80
2023/04/28 06:28:37;;;;;;;28.30;18.27;;;12.30;94.50;;;;;;6218656;22;87806;-80
2023/04/28 06:31:03;;;;;;;30.65;19.33;;;12.40;94.40;;;;;;6218509;22;87618;-80
2023/04/28 06:33:29;;;;;;;23.42;16.27;;;12.50;94.70;;;;;;6235843;22;87313;-81
2023/04/28 06:35:57;;;;;;;26.75;17.13;;;12.60;94.70;;;;;;6231927;22;87766;-82
2023/04/28 06:38:22;;;;;;;27.00;16.83;;;12.60;94.60;;;;;;6231323;22;87420;-80
2023/04/28 06:40:48;;;;;;;27.67;17.40;;;12.80;94.80;;;;;;6228626;22;87483;-81
2023/04/28 06:43:14;;;;;;;23.88;17.23;;;12.90;94.60;;;;;;6205482;22;89444;-81
2023/04/28 06:45:41;;;;;;;25.55;16.52;;;13.00;94.40;;;;;;6206668;22;91435;-81
2023/04/28 06:48:07;;;;;;;23.15;16.98;;;13.00;94.10;;;;;;6235124;22;89304;-81
2023/04/28 06:50:35;;;;;;;27.58;16.25;;;13.00;94.10;;;;;;6232947;22;87439;-80
2023/04/28 06:53:02;;;;;;;25.88;16.02;;;13.00;94.10;;;;;;6206185;22;89844;-80
2023/04/28 06:55:29;;;;;;;22.83;15.50;;;13.10;94.10;;;;;;6208076;22;89871;-80
2023/04/28 06:57:55;;;;;;;20.48;15.15;;;13.10;94.10;;;;;;6207056;22;90080;-80
2023/04/28 07:00:21;;;;;;;23.13;15.98;;;13.00;94.10;;;;;;6234498;22;87286;-80
2023/04/28 07:02:46;;;;;;;24.40;15.52;;;13.00;94.20;;;;;;6204709;22;89022;-79
2023/04/28 07:05:12;;;;;;;25.02;15.10;;;13.10;94.20;;;;;;6227270;22;87672;-79
2023/04/28 07:07:38;;;;;;;23.08;16.02;;;13.10;94.30;;;;;;6202836;22;91824;-80
2023/04/28 07:10:05;;;;;;;23.15;15.60;;;13.00;94.30;;;;;;6206026;22;87810;-84
2023/04/28 07:12:30;;;;;;;21.17;15.77;;;13.00;94.40;;;;;;6204193;22;88289;-82
2023/04/28 07:14:56;;;;;;;21.80;14.95;;;13.00;94.90;;;;;;6205721;22;90966;-80
2023/04/28 07:17:22;;;;;;;22.02;14.85;;;13.00;95.40;;;;;;6193952;22;90424;-80
2023/04/28 07:19:49;;;;;;;23.63;14.68;;;13.00;95.70;;;;;;6225488;22;87516;-81
2023/04/28 07:22:16;;;;;;;21.17;15.23;;;13.00;96.00;;;;;;6219927;22;87529;-80
2023/04/28 07:24:42;;;;;;;21.98;15.32;;;13.00;96.20;;;;;;6195007;22;91761;-80
2023/04/28 07:27:07;;;;;;;26.17;15.90;;;13.00;96.30;;;;;;6220668;22;87600;-78
2023/04/28 07:29:34;;;;;;;26.05;15.65;;;13.10;96.50;;;;;;6225819;22;87715;-80
2023/04/28 07:32:07;;;;;;;25.17;15.90;;;13.10;96.60;;;;;;6218182;22;87480;-80
2023/04/28 07:34:34;;;;;;;;;;;13.20;96.70;;;;;;6190346;22;92640;-80
2023/04/28 07:37:14;;;;;;;22.75;15.20;;;13.30;96.90;;;;;;6223289;22;88778;-80
2023/04/28 07:39:43;;;;;;;23.33;16.02;;;13.30;96.90;;;;;;6187172;22;87563;-79
2023/04/28 07:42:14;;;;;;;25.35;16.13;;;13.40;97.20;;;;;;6214682;22;88315;-82
2023/04/28 07:44:40;;;;;;;25.33;15.98;;;13.50;97.40;;;;;;6192292;22;88468;-82
2023/04/28 07:47:06;;;;;;;26.90;16.63;;;13.60;97.20;;;;;;6163962;22;90773;-82
2023/04/28 07:49:32;;;;;;;24.10;15.40;;;13.60;97.20;;;;;;6191037;22;87625;-82
2023/04/28 07:51:58;;;;;;;20.85;14.90;;;13.70;97.20;;;;;;6192390;22;87117;-82
2023/04/28 07:54:24;;;;;;;25.42;16.85;;;13.80;97.10;;;;;;6190552;22;88744;-82
2023/04/28 07:56:50;;;;;;;18.98;13.50;;;13.90;97.10;;;;;;6189115;22;87392;-81
2023/04/28 07:59:16;;;;;;;20.27;14.50;;;14.00;97.00;;;;;;6135509;22;88753;-81
2023/04/28 08:01:41;;;;;;;19.42;13.10;;;14.10;96.90;;;;;;6143754;22;88803;-81
2023/04/28 08:04:07;;;;;;;16.17;12.20;;;14.20;96.70;;;;;;6127618;22;90268;-81
2023/04/28 08:06:34;;;;;;;21.10;12.88;;;14.30;96.50;;;;;;6107294;23;88166;-83
2023/04/28 08:11:29;;;;;;;14.38;9.80;;;14.60;96.50;;;;;;6074404;23;87459;-81
2023/04/28 08:13:59;;;;;;;16.52;11.32;;;14.60;95.90;;;;;;6134265;23;88468;-82
2023/04/28 08:16:26;;;;;;;12.07;9.70;;;14.70;96.10;;;;;;6133787;23;88250;-82
2023/04/28 08:18:52;;;;;;;14.25;9.35;;;14.80;95.80;;;;;;6140665;23;87396;-82
2023/04/28 08:21:17;;;;;;;10.15;8.60;;;14.90;95.70;;;;;;6134580;23;87403;-82
2023/04/28 08:23:55;;;;;;;12.60;9.35;;;14.90;95.60;;;;;;6139168;23;89117;-82
2023/04/28 08:26:21;;;;;;;11.70;9.00;;;15.00;95.40;;;;;;6140234;22;89317;-80
2023/04/28 08:28:46;;;;;;;9.73;8.65;;;15.10;95.20;;;;;;6127570;23;87787;-80
2023/04/28 08:31:12;;;;;;;12.75;8.65;;;15.10;95.20;;;;;;6128198;23;87601;-79
2023/04/28 08:33:38;;;;;;;10.27;8.25;;;15.20;95.20;;;;;;6134578;23;88193;-83
2023/04/28 08:36:05;;;;;;;9.77;7.85;;;15.20;95.10;;;;;;6153815;22;93820;-82
2023/04/28 08:38:32;;;;;;;9.23;8.15;;;15.30;95.10;;;;;;6193284;22;87699;-82
2023/04/28 08:40:57;;;;;;;8.65;7.18;;;15.30;95.00;;;;;;6205526;22;91651;-82
2023/04/28 08:48:59;;;;;;;8.63;6.50;;;15.30;94.50;;;;;;6129444;22;89464;-81
2023/04/28 08:51:49;;;;;;;6.72;6.03;;;15.50;94.70;;;;;;6104095;22;90455;-81
2023/04/28 08:54:18;;;;;;;6.15;5.15;;;15.90;94.50;;;;;;6163088;22;89231;-79
2023/04/28 08:56:45;;;;;;;4.20;3.75;;;16.10;93.70;;;;;;6156161;22;88689;-81
2023/04/28 08:59:12;;;;;;;4.97;4.22;;;16.20;92.30;;;;;;6157251;22;87328;-81
2023/04/28 09:01:38;;;;;;;6.25;4.72;;;16.30;92.80;;;;;;6156299;22;87579;-81
2023/04/28 09:04:04;;;;;;;4.00;3.70;;;16.50;92.30;;;;;;6156192;22;88103;-81
2023/04/28 09:06:37;;;;;;;5.18;3.63;;;16.70;92.40;;;;;;6155871;22;87736;-84
2023/04/28 09:09:26;;;;;;;3.40;3.10;;;16.80;91.60;;;;;;6156386;22;86994;-80
2023/04/28 09:11:59;;;;;;;3.42;3.13;;;16.80;91.50;;;;;;6156061;22;87628;-81
2023/04/28 09:14:30;;;;;;;3.67;3.30;;;16.90;91.20;;;;;;6155727;22;88535;-81
2023/04/28 09:16:56;;;;;;;3.88;3.08;;;16.90;91.20;;;;;;6155860;22;89372;-81
2023/04/28 09:19:21;;;;;;;11.20;3.90;;;16.90;91.50;;;;;;6155971;22;87015;-80
2023/04/28 09:21:55;;;;;;;3.40;3.10;;;17.00;91.40;;;;;;6156157;22;87364;-81
2023/04/28 09:24:42;;;;;;;7.30;3.08;;;17.00;91.10;;;;;;6129418;22;91757;-82
2023/04/28 09:27:10;;;;;;;2.78;1.88;;;16.90;90.10;;;;;;6129734;22;88662;-80
2023/04/28 09:29:37;;;;;;;2.47;2.28;;;16.80;89.80;;;;;;6156118;22;87659;-80
2023/04/28 09:32:17;;;;;;;2.05;1.83;;;16.90;90.60;;;;;;6156766;22;87349;-80
2023/04/28 09:34:48;;;;;;;2.30;2.10;;;16.90;90.20;;;;;;6155395;22;88489;-80
2023/04/28 09:37:18;;;;;;;3.22;2.00;;;16.90;90.20;;;;;;6156191;22;88318;-84
2023/04/28 09:39:46;;;;;;;2.20;2.00;;;17.00;90.20;;;;;;6128556;22;88225;-80
2023/04/28 09:42:37;;;;;;;2.83;2.35;;;17.00;90.10;;;;;;6155951;22;94168;-80
2023/04/28 09:45:07;;;;;;;2.35;1.80;;;17.20;90.10;;;;;;6155134;22;89898;-81
2023/04/28 09:47:35;;;;;;;2.30;2.10;;;17.40;89.70;;;;;;6155776;22;88546;-79
2023/04/28 09:50:03;;;;;;;2.35;2.15;;;17.50;87.80;;;;;;6156512;22;87313;-81
2023/04/28 09:52:29;;;;;;;2.60;2.40;;;17.60;89.50;;;;;;6181211;22;87463;-81
2023/04/28 09:54:56;;;;;;;3.83;2.85;;;17.70;88.10;;;;;;6186130;22;88431;-81
2023/04/28 09:57:23;;;;;;;4.95;2.55;;;17.80;88.80;;;;;;6186173;22;88819;-81
2023/04/28 09:59:53;;;;;;;2.78;2.58;;;18.00;87.80;;;;;;6185800;22;87412;-80
2023/04/28 10:02:20;;;;;;;3.03;2.72;;;18.10;85.70;;;;;;6187499;22;87028;-81
2023/04/28 10:04:52;;;;;;;3.75;2.40;;;18.20;87.20;;;;;;6184599;22;92479;-80
2023/04/28 10:07:19;;;;;;;3.38;2.78;;;18.40;85.50;;;;;;6186501;22;88465;-81
2023/04/28 10:09:55;;;;;;;2.85;2.63;;;18.60;85.50;;;;;;6186687;22;87724;-80
2023/04/28 10:12:22;;;;;;;4.53;2.75;;;18.80;84.20;;;;;;6186359;22;87493;-79
2023/04/28 10:14:53;;;;;;;2.67;2.47;;;19.00;83.90;;;;;;6186773;22;87800;-82
2023/04/28 10:17:20;;;;;;;4.45;2.83;;;18.90;83.00;;;;;;6187713;22;87636;-79
2023/04/28 10:19:49;;;;;;;3.10;2.78;;;18.70;82.70;;;;;;6187243;22;87625;-88
2023/04/28 10:22:45;;;;;;;3.95;1.90;;;18.50;83.80;;;;;;6187719;22;87247;-80
2023/04/28 10:25:11;;;;;;;2.08;1.88;;;18.40;83.50;;;;;;6186817;22;88568;-80
2023/04/28 10:27:42;;;;;;;1.98;1.30;;;18.40;84.40;;;;;;6185981;22;88721;-80
2023/04/28 10:30:21;;;;;;;2.33;1.23;;;18.40;83.20;;;;;;6186952;22;88390;-80
2023/04/28 10:33:08;;;;;;;1.65;1.10;;;18.50;83.30;;;;;;6186494;22;87480;-79
2023/04/28 10:35:35;;;;;;;1.73;0.98;;;18.60;83.70;;;;;;6185432;22;88190;-79
2023/04/28 10:38:07;;;;;;;1.10;1.00;;;18.80;83.10;;;;;;6187272;22;88996;-79
2023/04/28 10:40:35;;;;;;;0.68;0.65;;;18.80;82.40;;;;;;6185336;22;87358;-78
2023/04/28 10:43:01;;;;;;;0.80;0.73;;;18.90;81.50;;;;;;6187076;22;87412;-80
2023/04/28 10:45:52;;;;;;;1.70;0.75;;;18.90;81.80;;;;;;6186643;22;88268;-78
2023/04/28 10:48:33;;;;;;;1.15;0.77;;;18.90;80.00;;;;;;6187515;22;88273;-79
2023/04/28 10:53:42;;;;;;;0.63;0.63;;;19.10;80.40;;;;;;6188065;22;87480;-78
2023/04/28 10:56:09;;;;;;;0.95;0.88;;;19.30;79.00;;;;;;6184577;22;96662;-76
2023/04/28 10:58:40;;;;;;;1.45;0.88;;;19.40;78.40;;;;;;6186753;22;89601;-77
2023/04/28 11:01:22;;;;;;;2.00;0.60;;;19.40;79.60;;;;;;6185690;22;87144;-77
2023/04/28 11:03:50;;;;;;;0.85;0.40;;;19.70;78.20;;;;;;6185403;22;91237;-76
2023/04/28 11:06:25;;;;;;;0.52;0.50;;;19.60;75.80;;;;;;6186355;22;88956;-76
2023/04/28 11:08:52;;;;;;;0.65;0.40;;;19.50;75.70;;;;;;6186454;22;87468;-76
2023/04/28 11:11:25;;;;;;;3.60;0.40;;;19.30;74.40;;;;;;6187408;22;86919;-76
2023/04/28 11:13:53;;;;;;;0.30;0.30;;;19.40;75.70;;;;;;6187122;22;87028;-76
2023/04/28 11:16:21;;;;;;;3.22;0.50;;;19.90;75.30;;;;;;6184908;22;91889;-76
2023/04/28 11:18:53;;;;;;;0.50;0.50;;;20.40;73.40;;;;;;6186666;22;87591;-76
2023/04/28 11:21:20;;;;;;;0.40;0.40;;;20.60;72.70;;;;;;6185226;22;88440;-76
2023/04/28 11:23:46;;;;;;;2.05;0.60;;;20.60;72.70;;;;;;6186530;22;87537;-79
2023/04/28 11:26:13;;;;;;;1.02;0.55;;;20.70;70.90;;;;;;6187809;22;88428;-76
2023/04/28 11:28:53;;;;;;;0.50;0.35;;;20.60;69.30;;;;;;6186584;22;87653;-76
2023/04/28 11:31:22;;;;;;;0.45;0.30;;;20.20;69.70;;;;;;6186863;22;87392;-76
2023/04/28 11:33:56;;;;;;;0.73;0.47;;;19.90;71.10;;;;;;6186609;22;87435;-80
2023/04/28 11:36:34;;;;;;;2.47;0.40;;;19.90;73.00;;;;;;6187090;22;88494;-80
2023/04/28 11:39:04;;;;;;;0.50;0.50;;;19.90;71.60;;;;;;6185310;22;90613;-80
2023/04/28 11:41:31;;;;;;;1.30;0.40;;;20.00;71.80;;;;;;6185867;22;87328;-81
2023/04/28 11:43:56;;;;;;;0.68;0.40;;;20.10;71.50;;;;;;6186886;22;87425;-79
2023/04/28 11:46:24;;;;;;;2.95;0.82;;;20.10;72.00;;;;;;6186587;22;89822;-86
2023/04/28 11:49:00;;;;;;;0.73;0.43;;;19.90;71.40;;;;;;6186914;22;89474;-80
2023/04/28 11:51:37;;;;;;;1.55;0.50;;;19.90;72.60;;;;;;6211213;22;87751;-83
2023/04/28 11:54:06;;;;;;;0.73;0.55;;;20.00;72.70;;;;;;6186056;22;90241;-83
2023/04/28 11:56:37;;;;;;;0.68;0.50;;;20.00;71.40;;;;;;6185954;22;90853;-77
2023/04/28 11:59:05;;;;;;;0.93;0.50;;;20.20;72.10;;;;;;6187397;22;92517;-78
2023/04/28 12:01:31;;;;;;;0.65;0.60;;;20.10;71.80;;;;;;6186961;22;87583;-77
2023/04/28 12:03:57;;;;;;;0.60;0.52;;;20.30;72.30;;;;;;6187362;22;87348;-83
2023/04/28 12:06:23;;;;;;;7.78;0.60;;;20.90;69.60;;;;;;6186738;22;87544;-81
2023/04/28 12:08:51;;;;;;;0.93;0.50;;;21.10;68.90;;;;;;6210565;22;91322;-81
2023/04/28 12:11:17;;;;;;;1.30;0.73;;;21.60;67.80;;;;;;6185205;22;88523;-82
2023/04/28 12:13:43;;;;;;;0.70;0.70;;;21.80;68.40;;;;;;6185254;22;89165;-81
2023/04/28 12:16:09;;;;;;;1.88;1.00;;;21.70;67.10;;;;;;6186846;22;87608;-81
2023/04/28 12:18:35;;;;;;;0.98;0.77;;;21.30;65.70;;;;;;6186806;22;87806;-81
2023/04/28 12:21:02;;;;;;;1.42;1.00;;;20.80;68.80;;;;;;6185305;22;87454;-81
2023/04/28 12:23:32;;;;;;;0.77;0.73;;;20.60;70.30;;;;;;6187878;22;88029;-83
2023/04/28 12:25:59;;;;;;;0.60;0.60;;;20.60;70.80;;;;;;6185421;22;94554;-83
2023/04/28 12:28:40;;;;;;;0.40;0.40;;;20.50;67.90;;;;;;6185326;22;91176;-80
2023/04/28 12:31:07;;;;;;;1.13;0.50;;;20.30;68.80;;;;;;6185060;22;87769;-81
2023/04/28 12:33:36;;;;;;;0.75;0.60;;;20.00;70.80;;;;;;6185009;22;90541;-82
2023/04/28 12:36:03;;;;;;;1.73;0.70;;;20.30;70.50;;;;;;6209983;22;91779;-82
2023/04/28 12:38:29;;;;;;;2.22;0.50;;;20.30;70.70;;;;;;6187002;22;89058;-82
2023/04/28 12:40:55;;;;;;;1.33;0.40;;;20.60;70.90;;;;;;6210545;22;87642;-80
2023/04/28 12:43:22;;;;;;;0.70;0.50;;;20.70;69.20;;;;;;6184613;22;89813;-82
2023/04/28 12:45:53;;;;;;;1.15;0.40;;;20.90;69.40;;;;;;6183809;22;91449;-82